createdAt,value
2018-11-27T20:59:17.184Z,8.68
2018-11-27T21:01:46.622Z,8.88
2018-11-27T21:04:16.165Z,8.83
2018-11-27T21:06:45.761Z,8.81
2018-11-27T21:09:15.244Z,8.58
2018-11-27T21:11:44.603Z,8.56
2018-11-27T21:14:14.104Z,8.55
2018-11-27T21:16:43.658Z,8.58
2018-11-27T21:19:13.562Z,8.46
2018-11-27T21:21:43.036Z,8.47
2018-11-27T21:24:13.710Z,8.55
2018-11-27T21:26:43.245Z,8.59
2018-11-27T21:29:12.731Z,8.35
2018-11-27T21:31:42.234Z,8.40
2018-11-27T21:34:11.752Z,8.40
2018-11-27T21:36:41.050Z,8.33
2018-11-27T21:39:10.803Z,8.43
2018-11-27T21:41:40.230Z,8.41
2018-11-27T21:44:09.851Z,8.20
2018-11-27T21:46:39.066Z,8.31
2018-11-27T21:49:09.028Z,8.34
2018-11-27T21:51:38.506Z,8.07
2018-11-27T21:54:07.794Z,7.97
2018-11-27T21:56:37.374Z,7.94
2018-11-27T21:59:06.919Z,7.97
2018-11-27T22:01:36.223Z,7.93
2018-11-27T22:04:05.797Z,7.97
2018-11-27T22:06:35.360Z,7.92
2018-11-27T22:09:05.076Z,7.83
2018-11-27T22:11:34.521Z,7.77
2018-11-27T22:14:03.840Z,7.73
2018-11-27T22:16:33.220Z,7.71
2018-11-27T22:19:02.647Z,7.53
2018-11-27T22:21:32.253Z,7.49
2018-11-27T22:24:01.763Z,7.44
2018-11-27T22:26:31.277Z,7.33
2018-11-27T22:29:00.917Z,7.47
2018-11-27T22:31:30.369Z,7.49
2018-11-27T22:33:59.895Z,7.39
2018-11-27T22:36:29.302Z,7.44
2018-11-27T22:38:58.715Z,7.30
2018-11-27T22:41:28.315Z,7.36
2018-11-27T22:43:57.756Z,7.24
2018-11-27T22:46:27.413Z,7.15
2018-11-27T22:48:56.834Z,7.20
2018-11-27T22:51:26.361Z,7.09
2018-11-27T22:53:55.839Z,7.03
2018-11-27T22:56:25.263Z,6.98
2018-11-27T22:58:54.838Z,7.06
2018-11-27T23:01:24.416Z,6.97
2018-11-27T23:03:54.495Z,7.07
2018-11-27T23:06:23.962Z,7.11
2018-11-27T23:08:53.391Z,7.02
2018-11-27T23:11:22.862Z,6.96
2018-11-27T23:13:52.282Z,7.12
2018-11-27T23:16:21.850Z,7.09
2018-11-27T23:18:51.074Z,7.06
2018-11-27T23:21:20.644Z,7.13
2018-11-27T23:23:50.189Z,7.11
2018-11-27T23:26:19.728Z,6.96
2018-11-27T23:28:49.210Z,6.78
2018-11-27T23:31:18.634Z,6.79
2018-11-27T23:33:48.250Z,6.79
2018-11-27T23:36:17.854Z,6.81
2018-11-27T23:38:47.260Z,6.70
2018-11-27T23:41:16.624Z,6.64
2018-11-27T23:43:46.067Z,6.80
2018-11-27T23:46:15.599Z,6.66
2018-11-27T23:48:44.932Z,6.73
2018-11-27T23:51:14.479Z,6.64
2018-11-27T23:53:43.961Z,6.59
2018-11-27T23:56:13.560Z,6.70
2018-11-27T23:58:42.893Z,6.71
